Time;durP1;ratioP1;P1;durP2;ratioP2;P2;SDS_P1;SDS_P2;PMS_P1;PMS_P2;Temp;Humidity;BMP_temperature;BMP_pressure;BME280_temperature;BME280_humidity;BME280_pressure;Samples;Min_cycle;Max_cycle;Signal;HPM_P1;HPM_P2
2023/10/12 00:01:26;;;;;;;2.63;0.90;;;14.30;99.90;;;;;;4996846;28;20208;-80
2023/10/12 00:04:05;;;;;;;3.58;0.90;;;14.30;99.90;;;;;;5013844;28;20045;-83
2023/10/12 00:06:36;;;;;;;2.63;0.82;;;14.30;99.90;;;;;;4997956;28;20120;-81
2023/10/12 00:09:16;;;;;;;4.75;0.90;;;14.20;99.90;;;;;;5013126;28;20112;-80
2023/10/12 00:12:07;;;;;;;3.63;0.80;;;14.20;99.90;;;;;;4999138;28;20046;-83
2023/10/12 00:14:34;;;;;;;2.63;0.85;;;14.20;99.90;;;;;;5012539;28;20057;-83
2023/10/12 00:17:00;;;;;;;2.97;0.90;;;14.10;99.90;;;;;;5014514;28;20119;-83
2023/10/12 00:19:26;;;;;;;2.45;0.90;;;14.10;99.90;;;;;;4996372;28;20479;-82
2023/10/12 00:22:00;;;;;;;3.00;0.93;;;14.00;99.90;;;;;;5013050;28;20089;-83
2023/10/12 00:24:30;;;;;;;3.50;0.80;;;14.00;99.90;;;;;;4998114;28;20383;-82
2023/10/12 00:26:58;;;;;;;4.18;1.00;;;14.00;99.90;;;;;;5013905;28;20046;-82
2023/10/12 00:29:23;;;;;;;3.38;1.00;;;13.90;99.90;;;;;;5012481;28;20132;-81
2023/10/12 00:31:52;;;;;;;2.20;0.95;;;13.90;99.90;;;;;;5013649;28;20550;-81
2023/10/12 00:34:23;;;;;;;2.60;1.00;;;13.80;99.90;;;;;;5017000;28;20046;-83
2023/10/12 00:36:52;;;;;;;3.75;1.10;;;13.80;99.90;;;;;;5019332;28;20446;-83
2023/10/12 00:39:21;;;;;;;3.15;1.20;;;13.70;99.90;;;;;;5019204;28;20108;-84
2023/10/12 00:41:47;;;;;;;3.42;1.00;;;13.70;99.90;;;;;;5016978;28;20084;-83
2023/10/12 00:44:13;;;;;;;3.95;0.85;;;13.60;99.90;;;;;;5017092;28;20075;-83
2023/10/12 00:46:58;;;;;;;2.80;0.90;;;13.60;99.90;;;;;;5016810;28;20052;-82
2023/10/12 00:49:27;;;;;;;5.30;0.90;;;13.60;99.90;;;;;;5015592;28;20093;-83
2023/10/12 00:52:08;;;;;;;2.70;1.00;;;13.60;99.90;;;;;;5015534;28;20137;-83
2023/10/12 00:57:11;;;;;;;2.15;0.80;;;13.60;99.90;;;;;;5016735;28;20096;-83
2023/10/12 00:59:38;;;;;;;2.30;0.90;;;13.60;99.90;;;;;;5016789;28;20394;-82
2023/10/12 01:02:15;;;;;;;2.80;0.90;;;13.60;99.90;;;;;;5016871;28;20056;-82
2023/10/12 01:04:44;;;;;;;6.07;0.95;;;13.50;99.90;;;;;;5016185;28;20494;-81
2023/10/12 01:07:19;;;;;;;3.42;0.85;;;13.50;99.90;;;;;;5016690;28;20046;-81
2023/10/12 01:09:45;;;;;;;3.20;0.82;;;13.50;99.90;;;;;;5016039;28;20100;-82
2023/10/12 01:12:14;;;;;;;3.47;0.90;;;13.50;99.90;;;;;;5016026;28;20402;-80
2023/10/12 01:14:46;;;;;;;2.42;0.90;;;13.50;99.90;;;;;;5017370;28;20370;-84
2023/10/12 01:17:17;;;;;;;2.90;0.77;;;13.50;99.90;;;;;;5015595;28;20085;-81
2023/10/12 01:19:47;;;;;;;4.15;0.82;;;13.50;99.90;;;;;;5016309;28;20057;-80
2023/10/12 01:22:14;;;;;;;5.82;1.30;;;13.50;99.90;;;;;;5015779;28;20062;-80
2023/10/12 01:24:57;;;;;;;4.15;1.00;;;13.50;99.90;;;;;;4999064;28;20043;-81
2023/10/12 01:27:27;;;;;;;4.05;1.05;;;13.50;99.90;;;;;;5016281;28;20128;-81
2023/10/12 01:30:11;;;;;;;5.68;1.17;;;13.40;99.90;;;;;;5015750;28;20195;-82
2023/10/12 01:32:37;;;;;;;2.80;1.10;;;13.40;99.90;;;;;;5016922;28;20068;-82
2023/10/12 01:35:04;;;;;;;5.47;1.20;;;13.30;99.90;;;;;;5015296;28;20061;-82
2023/10/12 01:37:41;;;;;;;5.15;1.00;;;13.30;99.90;;;;;;4999134;28;20059;-82
2023/10/12 01:40:15;;;;;;;4.45;1.13;;;13.20;99.90;;;;;;5015835;28;20547;-82
2023/10/12 01:45:17;;;;;;;4.43;1.02;;;13.20;99.90;;;;;;5015507;28;20069;-82
2023/10/12 01:47:44;;;;;;;3.53;0.77;;;13.10;99.90;;;;;;5000216;28;20124;-81
2023/10/12 01:50:11;;;;;;;5.47;0.98;;;13.00;99.90;;;;;;4999180;28;20475;-81
2023/10/12 01:52:37;;;;;;;6.72;1.30;;;13.00;99.90;;;;;;5015976;28;20053;-81
2023/10/12 01:55:15;;;;;;;4.22;1.30;;;12.90;99.90;;;;;;5014857;28;20089;-80
2023/10/12 01:57:51;;;;;;;4.43;1.52;;;12.90;99.90;;;;;;5000653;28;20041;-82
2023/10/12 02:00:23;;;;;;;;;;;12.90;99.90;;;;;;5016127;28;20108;-80
2023/10/12 02:03:00;;;;;;;4.47;1.00;;;12.80;99.90;;;;;;5015747;28;19922;-80
2023/10/12 02:05:30;;;;;;;5.18;1.30;;;12.80;99.90;;;;;;5014379;28;20470;-80
2023/10/12 02:07:56;;;;;;;4.15;1.30;;;12.80;99.90;;;;;;5015296;28;20453;-80
2023/10/12 02:10:24;;;;;;;4.25;1.60;;;12.80;99.90;;;;;;5014519;28;20049;-80
2023/10/12 02:12:55;;;;;;;3.88;1.20;;;12.80;99.90;;;;;;4998308;28;20483;-80
2023/10/12 02:15:24;;;;;;;2.45;1.02;;;12.70;99.90;;;;;;5014827;28;20049;-81
2023/10/12 02:17:51;;;;;;;2.20;0.90;;;12.70;99.90;;;;;;5015437;28;20082;-80
2023/10/12 02:20:18;;;;;;;6.60;1.10;;;12.70;99.90;;;;;;5015428;28;20058;-80
2023/10/12 02:22:52;;;;;;;1.70;0.85;;;12.70;99.90;;;;;;5014597;28;20082;-81
2023/10/12 02:25:18;;;;;;;5.85;1.33;;;12.70;99.90;;;;;;5015292;28;20042;-80
2023/10/12 02:27:58;;;;;;;5.40;1.00;;;12.70;99.90;;;;;;5015166;28;20045;-81
2023/10/12 02:30:28;;;;;;;6.32;1.63;;;12.70;99.90;;;;;;4997954;28;20485;-81
2023/10/12 02:33:01;;;;;;;5.55;1.13;;;12.70;99.90;;;;;;5014139;28;20076;-80
2023/10/12 02:35:44;;;;;;;5.43;1.05;;;12.70;99.90;;;;;;5014840;28;20505;-80
2023/10/12 02:38:14;;;;;;;4.03;0.90;;;12.70;99.90;;;;;;5014805;28;20490;-78
2023/10/12 02:40:41;;;;;;;5.40;1.15;;;12.70;99.90;;;;;;5031393;28;20068;-80
2023/10/12 02:43:10;;;;;;;3.45;1.10;;;12.70;99.90;;;;;;5015397;28;20133;-81
2023/10/12 02:45:41;;;;;;;3.00;1.13;;;12.70;99.90;;;;;;5014636;28;20124;-80
2023/10/12 02:48:13;;;;;;;6.38;1.00;;;12.70;99.90;;;;;;5015530;28;20054;-81
2023/10/12 02:50:57;;;;;;;4.20;1.10;;;12.70;99.90;;;;;;5013738;28;20196;-82
2023/10/12 02:53:30;;;;;;;4.18;1.00;;;12.60;99.90;;;;;;5014733;28;20180;-81
2023/10/12 02:56:00;;;;;;;3.63;1.30;;;12.60;99.90;;;;;;5014667;28;20498;-81
2023/10/12 02:58:30;;;;;;;5.07;1.38;;;12.70;99.90;;;;;;5014789;28;20050;-80
2023/10/12 03:01:12;;;;;;;7.57;1.15;;;12.60;99.90;;;;;;5013728;28;20069;-80
2023/10/12 03:03:54;;;;;;;5.82;1.10;;;12.60;99.90;;;;;;5014035;28;20046;-80
2023/10/12 03:06:24;;;;;;;7.38;1.48;;;12.70;99.90;;;;;;5014177;28;20046;-79
2023/10/12 03:11:26;;;;;;;4.93;1.90;;;12.60;99.90;;;;;;5013916;28;20092;-80
2023/10/12 03:16:41;;;;;;;3.47;1.10;;;12.60;99.90;;;;;;5013736;28;20475;-80
2023/10/12 03:19:28;;;;;;;3.63;1.27;;;12.60;99.90;;;;;;5013642;28;20107;-79
2023/10/12 03:22:03;;;;;;;5.68;1.00;;;12.60;99.90;;;;;;5012557;28;20111;-79
2023/10/12 03:24:51;;;;;;;7.43;1.73;;;12.50;99.90;;;;;;5014094;28;20048;-79
2023/10/12 03:27:19;;;;;;;6.55;1.50;;;12.50;99.90;;;;;;5013893;28;20047;-80
2023/10/12 03:29:50;;;;;;;3.72;1.50;;;12.50;99.90;;;;;;5014182;28;20426;-80
2023/10/12 03:32:22;;;;;;;3.80;1.73;;;12.50;99.90;;;;;;4997948;28;20045;-80
2023/10/12 03:37:18;;;;;;;3.63;1.40;;;12.50;99.90;;;;;;5014919;28;20053;-80
2023/10/12 03:46:00;;;;;;;4.03;1.77;;;12.40;99.90;;;;;;5013682;28;20470;-81
2023/10/12 03:48:15;;;;;;;5.20;1.83;;;12.40;99.90;;;;;;5007741;28;20053;-80
2023/10/12 03:50:58;;;;;;;5.00;1.63;;;12.40;99.90;;;;;;5012608;28;20514;-81
2023/10/12 03:53:37;;;;;;;6.90;1.80;;;12.40;99.90;;;;;;5014006;28;20132;-82
2023/10/12 03:56:07;;;;;;;4.00;1.98;;;12.50;99.90;;;;;;5013737;28;20132;-81
2023/10/12 03:58:39;;;;;;;4.07;1.58;;;12.50;99.90;;;;;;5013347;28;20221;-80
2023/10/12 04:01:24;;;;;;;4.57;1.63;;;12.40;99.90;;;;;;5012488;28;20126;-80
2023/10/12 04:03:58;;;;;;;4.25;1.60;;;12.40;99.90;;;;;;5015928;28;20108;-81
2023/10/12 04:06:29;;;;;;;5.40;1.85;;;12.50;99.90;;;;;;5012656;28;20046;-81
2023/10/12 04:08:58;;;;;;;5.70;1.60;;;12.40;99.90;;;;;;5017897;28;20128;-80
2023/10/12 04:11:47;;;;;;;4.65;1.60;;;12.40;99.90;;;;;;5016605;28;20399;-81
2023/10/12 04:14:43;;;;;;;4.93;1.60;;;12.40;99.90;;;;;;5000378;28;20049;-81
2023/10/12 04:17:09;;;;;;;3.90;1.48;;;12.50;99.90;;;;;;5016273;28;20050;-81
2023/10/12 04:19:37;;;;;;;3.67;1.52;;;12.50;99.90;;;;;;5018217;28;20088;-81
2023/10/12 04:22:15;;;;;;;4.63;1.40;;;12.40;99.90;;;;;;5017486;28;20057;-81
2023/10/12 04:24:45;;;;;;;5.50;1.80;;;12.50;99.90;;;;;;5016552;28;20482;-80
2023/10/12 04:27:38;;;;;;;7.10;1.83;;;12.50;99.90;;;;;;5017435;28;20088;-81
2023/10/12 04:30:18;;;;;;;6.22;1.70;;;12.50;99.90;;;;;;5020139;28;20141;-80
2023/10/12 04:38:08;;;;;;;3.67;1.80;;;12.50;99.90;;;;;;5016335;28;20053;-81
2023/10/12 04:40:42;;;;;;;5.28;1.63;;;12.50;99.90;;;;;;5000242;28;20104;-80
2023/10/12 04:43:08;;;;;;;5.70;1.80;;;12.50;99.90;;;;;;5016354;28;20056;-81
2023/10/12 04:48:21;;;;;;;4.25;1.80;;;12.50;99.90;;;;;;5017742;28;20050;-80
2023/10/12 04:50:59;;;;;;;7.65;1.75;;;12.60;99.90;;;;;;5016075;28;20069;-81
2023/10/12 04:53:53;;;;;;;6.55;1.92;;;12.60;99.90;;;;;;5001052;28;20053;-81
2023/10/12 04:56:10;;;;;;;4.83;1.60;;;12.60;99.90;;;;;;5015886;28;20057;-81
2023/10/12 04:58:37;;;;;;;4.30;1.67;;;12.50;99.90;;;;;;5015525;28;20281;-80
2023/10/12 05:01:22;;;;;;;4.40;2.03;;;12.60;99.90;;;;;;5016941;28;20046;-79
2023/10/12 05:04:09;;;;;;;6.80;1.85;;;12.60;99.90;;;;;;4999862;28;20095;-80
2023/10/12 05:07:05;;;;;;;7.32;1.85;;;12.60;99.90;;;;;;5016288;28;20050;-80
2023/10/12 05:09:31;;;;;;;4.40;1.65;;;12.60;99.90;;;;;;5015835;28;20449;-80
2023/10/12 05:11:57;;;;;;;6.07;1.67;;;12.60;99.90;;;;;;5016359;28;20041;-79
2023/10/12 05:14:24;;;;;;;7.25;2.00;;;12.60;99.90;;;;;;5016570;28;20505;-79
2023/10/12 05:16:51;;;;;;;4.53;1.92;;;12.60;99.90;;;;;;5016571;28;20050;-78
2023/10/12 05:19:16;;;;;;;5.18;1.75;;;12.60;99.90;;;;;;5013969;28;20061;-78
2023/10/12 05:21:43;;;;;;;7.57;2.05;;;12.60;99.90;;;;;;5016567;28;20045;-78
2023/10/12 05:24:09;;;;;;;4.95;2.20;;;12.60;99.90;;;;;;5015479;28;20050;-79
2023/10/12 05:26:37;;;;;;;4.90;1.67;;;12.60;99.90;;;;;;5016377;28;20042;-79
2023/10/12 05:29:38;;;;;;;5.43;1.65;;;12.60;99.90;;;;;;5016250;28;20050;-79
2023/10/12 05:32:05;;;;;;;6.20;1.90;;;12.60;99.90;;;;;;4998691;28;20068;-78
2023/10/12 05:37:24;;;;;;;5.60;1.95;;;12.60;99.90;;;;;;5015589;28;20116;-79
2023/10/12 05:39:59;;;;;;;5.97;1.67;;;12.60;99.90;;;;;;5002409;28;20093;-78
2023/10/12 05:42:27;;;;;;;2.40;1.45;;;12.50;99.90;;;;;;5018033;28;20046;-78
2023/10/12 05:45:05;;;;;;;5.15;1.90;;;12.60;99.90;;;;;;5017328;28;20053;-78
2023/10/12 05:47:31;;;;;;;4.85;1.75;;;12.60;99.90;;;;;;5016383;28;20437;-79
2023/10/12 05:49:59;;;;;;;5.00;2.38;;;12.50;99.90;;;;;;5014897;28;20054;-78
2023/10/12 05:52:25;;;;;;;5.60;1.73;;;12.50;99.90;;;;;;5015057;28;20376;-78
2023/10/12 05:55:10;;;;;;;6.28;2.33;;;12.50;99.90;;;;;;5015145;28;20081;-79
2023/10/12 05:57:36;;;;;;;5.28;2.10;;;12.50;99.90;;;;;;5015222;28;20057;-78
2023/10/12 06:00:09;;;;;;;5.43;1.77;;;12.50;99.90;;;;;;5016086;28;20443;-78
2023/10/12 06:02:35;;;;;;;5.60;1.73;;;12.50;99.90;;;;;;5015756;28;20490;-78
2023/10/12 06:05:04;;;;;;;7.10;2.00;;;12.40;99.90;;;;;;5014040;28;20092;-78
2023/10/12 06:07:30;;;;;;;4.15;1.77;;;12.40;99.90;;;;;;5015266;28;20148;-77
2023/10/12 06:09:56;;;;;;;8.27;2.00;;;12.30;99.90;;;;;;5014505;28;20498;-77
2023/10/12 06:12:24;;;;;;;3.20;1.60;;;12.30;99.90;;;;;;5015803;28;20493;-78
2023/10/12 06:14:53;;;;;;;3.30;1.48;;;12.20;99.90;;;;;;4998786;28;20058;-77
2023/10/12 06:17:30;;;;;;;5.75;1.65;;;12.20;99.90;;;;;;5014311;28;20504;-66
2023/10/12 06:20:11;;;;;;;4.55;1.60;;;12.20;99.90;;;;;;5015456;28;20053;-66
2023/10/12 06:22:38;;;;;;;5.15;1.65;;;12.20;99.90;;;;;;5015730;28;20045;-66
2023/10/12 06:25:11;;;;;;;3.35;1.77;;;12.10;99.90;;;;;;5014935;28;20510;-66
2023/10/12 06:27:37;;;;;;;3.05;1.30;;;12.10;99.90;;;;;;5014353;28;20525;-66
2023/10/12 06:30:16;;;;;;;4.85;1.70;;;12.10;99.90;;;;;;5013724;28;20085;-66
2023/10/12 06:32:46;;;;;;;3.10;1.50;;;12.00;99.90;;;;;;5014113;28;20532;-66
2023/10/12 06:45:51;;;;;;;4.65;1.90;;;11.70;99.90;;;;;;5015048;28;20095;-66
2023/10/12 06:51:04;;;;;;;4.68;1.60;;;11.60;99.90;;;;;;5015549;28;20068;-66
2023/10/12 06:53:36;;;;;;;5.05;1.80;;;11.60;99.90;;;;;;5014878;28;20052;-66
2023/10/12 06:59:07;;;;;;;4.65;1.60;;;11.50;99.90;;;;;;5014828;28;20045;-66
2023/10/12 07:01:38;;;;;;;5.75;1.67;;;11.50;99.90;;;;;;5015306;28;20054;-66
2023/10/12 07:04:13;;;;;;;6.97;2.08;;;11.60;99.90;;;;;;5014823;28;20053;-65
2023/10/12 07:06:48;;;;;;;4.00;1.80;;;11.70;99.90;;;;;;5015472;28;20433;-66
2023/10/12 07:09:14;;;;;;;5.68;2.15;;;11.70;99.90;;;;;;5014518;28;20408;-66
2023/10/12 07:11:39;;;;;;;8.25;2.28;;;11.80;99.90;;;;;;5014706;28;20050;-66
2023/10/12 07:14:06;;;;;;;5.70;2.00;;;11.80;99.90;;;;;;5014012;28;20090;-67
2023/10/12 07:16:40;;;;;;;4.60;1.88;;;11.90;99.90;;;;;;5014943;28;20085;-65
2023/10/12 07:19:06;;;;;;;5.28;1.55;;;12.00;99.90;;;;;;5014346;28;20088;-65
2023/10/12 07:21:32;;;;;;;7.60;2.00;;;12.10;99.90;;;;;;5014238;28;20091;-65
2023/10/12 07:23:57;;;;;;;4.47;1.80;;;12.20;99.90;;;;;;5014196;28;20124;-67
2023/10/12 07:26:30;;;;;;;6.90;1.90;;;12.30;99.90;;;;;;5014084;28;20045;-67
2023/10/12 07:28:57;;;;;;;5.35;2.17;;;12.30;99.90;;;;;;5014130;28;20057;-66
2023/10/12 07:39:19;;;;;;;4.60;1.83;;;12.70;99.90;;;;;;5013995;28;20054;-66
2023/10/12 07:41:56;;;;;;;4.68;2.00;;;12.80;99.90;;;;;;5013326;28;20049;-67
2023/10/12 07:44:23;;;;;;;6.82;1.90;;;12.90;99.90;;;;;;5014352;28;20057;-65
2023/10/12 07:46:49;;;;;;;8.38;2.17;;;12.90;99.90;;;;;;5014645;28;20355;-65
2023/10/12 07:52:14;;;;;;;4.43;1.50;;;13.10;99.90;;;;;;5014559;28;20050;-65
2023/10/12 07:57:20;;;;;;;6.75;1.90;;;13.30;99.90;;;;;;5014345;28;20058;-65
2023/10/12 08:00:30;;;;;;;5.05;2.00;;;13.40;99.90;;;;;;5014002;28;20053;-65
2023/10/12 08:05:16;;;;;;;7.38;1.95;;;13.70;99.90;;;;;;5014584;28;20131;-66
2023/10/12 08:13:15;;;;;;;5.43;1.40;;;14.00;99.90;;;;;;5014519;28;20081;-66
2023/10/12 08:24:10;;;;;;;8.48;1.45;;;14.20;99.90;;;;;;5013996;28;20449;-66
2023/10/12 08:39:38;;;;;;;4.60;1.38;;;14.10;99.90;;;;;;5013269;28;20050;-67
2023/10/12 08:44:54;;;;;;;4.88;1.30;;;14.10;99.90;;;;;;5013260;28;20202;-66
2023/10/12 08:49:53;;;;;;;5.60;1.20;;;14.10;99.90;;;;;;5013650;28;20065;-65
2023/10/12 08:52:28;;;;;;;4.50;1.40;;;14.00;99.90;;;;;;5013966;28;20045;-65
2023/10/12 08:55:11;;;;;;;4.05;1.30;;;14.00;99.90;;;;;;5016608;28;20470;-65
2023/10/12 08:58:01;;;;;;;3.92;1.40;;;14.00;99.90;;;;;;5017006;28;20409;-65
2023/10/12 09:05:54;;;;;;;6.00;1.60;;;14.00;99.90;;;;;;5016801;28;20057;-66
2023/10/12 09:11:03;;;;;;;4.00;1.30;;;14.00;99.90;;;;;;5015714;28;20459;-66
2023/10/12 09:13:34;;;;;;;6.25;1.50;;;14.00;99.90;;;;;;5017546;28;20359;-65
2023/10/12 09:16:11;;;;;;;4.15;1.45;;;14.00;99.90;;;;;;5016751;28;20046;-66
2023/10/12 09:18:47;;;;;;;5.13;1.38;;;14.00;99.90;;;;;;5016602;28;20522;-65
2023/10/12 09:24:26;;;;;;;4.45;1.58;;;14.00;99.90;;;;;;5016434;28;19928;-65
2023/10/12 09:26:59;;;;;;;4.45;1.30;;;14.10;99.90;;;;;;5016081;28;20050;-65
2023/10/12 09:29:28;;;;;;;4.15;1.33;;;14.10;99.90;;;;;;5017014;28;20049;-66
2023/10/12 09:32:32;;;;;;;3.67;1.10;;;14.10;99.90;;;;;;5016554;28;20057;-66
2023/10/12 09:35:11;;;;;;;3.55;1.10;;;14.10;99.90;;;;;;5014394;28;20053;-66
2023/10/12 09:37:51;;;;;;;3.15;1.20;;;14.20;99.90;;;;;;5016276;28;20054;-66
2023/10/12 09:43:07;;;;;;;4.38;1.30;;;14.20;99.90;;;;;;5016407;28;20120;-66
2023/10/12 09:45:45;;;;;;;3.42;1.30;;;14.20;99.90;;;;;;5014528;28;20133;-66
2023/10/12 09:48:18;;;;;;;5.57;1.00;;;14.20;99.90;;;;;;5016675;28;20133;-66
2023/10/12 09:50:47;;;;;;;4.63;1.00;;;14.30;99.90;;;;;;5016067;28;20058;-66
2023/10/12 09:53:26;;;;;;;3.30;0.90;;;14.50;99.90;;;;;;5015876;28;20505;-66
2023/10/12 09:56:11;;;;;;;5.55;1.23;;;14.70;99.90;;;;;;5015795;28;20037;-66
2023/10/12 09:58:56;;;;;;;5.03;1.20;;;14.70;99.90;;;;;;5015983;28;20470;-66
2023/10/12 10:01:45;;;;;;;5.80;1.20;;;14.70;99.90;;;;;;5015666;28;20056;-67
2023/10/12 10:07:08;;;;;;;3.10;1.02;;;14.80;99.90;;;;;;5015924;28;20281;-66
2023/10/12 10:12:04;;;;;;;5.75;1.20;;;14.90;99.90;;;;;;5015476;28;20057;-66
2023/10/12 10:14:37;;;;;;;7.32;1.27;;;14.90;99.90;;;;;;5015362;28;20045;-66
2023/10/12 10:17:09;;;;;;;6.10;1.13;;;15.00;99.90;;;;;;5015355;28;20584;-65
2023/10/12 10:19:35;;;;;;;3.22;0.98;;;15.00;99.90;;;;;;5015721;28;20096;-66
2023/10/12 10:22:05;;;;;;;3.08;1.27;;;15.00;99.90;;;;;;5015217;28;20505;-66
2023/10/12 10:24:43;;;;;;;5.03;1.30;;;15.00;99.90;;;;;;5015183;28;20046;-66
2023/10/12 10:27:18;;;;;;;4.78;0.98;;;15.00;99.90;;;;;;5015399;28;20050;-65
2023/10/12 10:29:56;;;;;;;5.15;1.08;;;15.00;99.90;;;;;;5015738;28;20042;-66
2023/10/12 10:32:38;;;;;;;4.20;1.08;;;14.90;99.90;;;;;;5015261;28;20053;-66
2023/10/12 10:35:13;;;;;;;5.78;1.17;;;15.00;99.90;;;;;;5015450;28;20143;-65
2023/10/12 10:37:47;;;;;;;6.05;1.10;;;15.00;99.90;;;;;;5015011;28;20046;-65
2023/10/12 10:40:18;;;;;;;5.05;1.20;;;15.00;99.90;;;;;;5014914;28;20093;-65
2023/10/12 10:43:08;;;;;;;3.55;0.90;;;15.00;99.90;;;;;;5014997;28;20045;-65
2023/10/12 10:45:35;;;;;;;4.28;1.30;;;15.10;99.90;;;;;;5014696;28;20042;-65
2023/10/12 10:48:03;;;;;;;6.47;1.20;;;15.00;99.90;;;;;;5015627;28;20054;-65
2023/10/12 10:50:33;;;;;;;2.17;0.77;;;15.00;99.90;;;;;;5015743;28;20058;-65
2023/10/12 10:53:00;;;;;;;4.63;1.23;;;15.10;99.90;;;;;;5014521;28;20058;-65
2023/10/12 10:55:31;;;;;;;3.85;1.33;;;15.10;99.90;;;;;;5014675;28;20133;-65
2023/10/12 10:57:57;;;;;;;4.15;1.20;;;15.10;99.90;;;;;;5014655;28;20044;-66
2023/10/12 11:00:33;;;;;;;5.65;0.90;;;15.20;99.90;;;;;;5015149;28;20172;-66
2023/10/12 11:03:03;;;;;;;4.70;1.08;;;15.20;99.90;;;;;;5014659;28;20056;-66
2023/10/12 11:05:30;;;;;;;3.40;1.08;;;15.20;99.90;;;;;;5014624;28;20394;-66
2023/10/12 11:08:06;;;;;;;5.72;0.90;;;15.20;99.90;;;;;;5014376;28;20084;-66
2023/10/12 11:10:32;;;;;;;7.22;1.17;;;15.20;99.90;;;;;;5013464;28;20054;-67
2023/10/12 11:13:02;;;;;;;3.35;1.10;;;15.20;99.90;;;;;;5014573;28;20057;-66
2023/10/12 11:15:29;;;;;;;4.85;1.00;;;15.20;99.90;;;;;;5014090;28;20050;-66
2023/10/12 11:18:05;;;;;;;4.63;1.13;;;15.20;99.90;;;;;;5014206;28;20046;-66
2023/10/12 11:20:49;;;;;;;4.68;0.88;;;15.20;99.90;;;;;;5014326;28;20099;-66
2023/10/12 11:23:16;;;;;;;5.10;1.08;;;15.20;99.90;;;;;;5013750;28;20132;-65
2023/10/12 11:25:42;;;;;;;3.42;1.00;;;15.20;99.90;;;;;;5014070;28;20125;-65
2023/10/12 11:28:22;;;;;;;5.60;1.10;;;15.20;99.90;;;;;;5014292;28;20184;-65
2023/10/12 11:31:03;;;;;;;4.22;0.82;;;15.20;99.90;;;;;;5014140;28;20057;-65
2023/10/12 11:33:29;;;;;;;2.65;1.13;;;15.20;99.90;;;;;;5014008;28;20054;-65
2023/10/12 11:36:00;;;;;;;3.10;0.90;;;15.30;99.90;;;;;;5013943;28;20050;-65
2023/10/12 11:38:27;;;;;;;4.72;0.80;;;15.40;99.90;;;;;;5014549;28;20052;-65
2023/10/12 11:40:53;;;;;;;4.43;1.20;;;15.40;99.90;;;;;;5013920;28;20506;-65
2023/10/12 11:43:21;;;;;;;3.65;1.00;;;15.40;99.90;;;;;;5013910;28;20053;-65
2023/10/12 11:45:55;;;;;;;4.57;1.20;;;15.50;99.90;;;;;;5013777;28;20037;-66
2023/10/12 11:48:22;;;;;;;4.78;0.98;;;15.60;99.90;;;;;;5012357;28;20572;-65
2023/10/12 11:50:51;;;;;;;3.85;0.80;;;15.60;99.90;;;;;;5014444;28;20062;-65
2023/10/12 11:53:17;;;;;;;3.97;1.00;;;15.60;99.90;;;;;;5013736;28;20049;-65
2023/10/12 11:55:44;;;;;;;3.75;1.10;;;15.60;99.90;;;;;;5014291;28;20153;-65
2023/10/12 11:58:16;;;;;;;2.95;0.90;;;15.60;99.90;;;;;;5013432;28;20119;-65
2023/10/12 12:00:48;;;;;;;4.00;1.05;;;15.60;99.90;;;;;;5013925;28;20050;-65
2023/10/12 12:03:15;;;;;;;3.65;0.98;;;15.60;99.90;;;;;;5013747;28;20050;-65
2023/10/12 12:05:51;;;;;;;4.22;1.08;;;15.60;99.90;;;;;;5013064;28;20049;-65
2023/10/12 12:08:24;;;;;;;3.88;1.20;;;15.60;99.90;;;;;;5013741;28;20049;-65
2023/10/12 12:13:20;;;;;;;3.08;1.13;;;15.60;99.90;;;;;;5013169;28;20494;-65
2023/10/12 12:15:47;;;;;;;2.92;0.90;;;15.60;99.90;;;;;;5013478;28;20052;-65
2023/10/12 12:18:23;;;;;;;5.85;1.40;;;15.50;99.90;;;;;;5013533;28;20104;-65
2023/10/12 12:20:56;;;;;;;2.83;0.80;;;15.50;99.90;;;;;;5013907;28;20089;-65
2023/10/12 12:23:33;;;;;;;2.88;0.90;;;15.50;99.90;;;;;;5014381;28;20125;-65
2023/10/12 12:26:07;;;;;;;4.40;0.90;;;15.40;99.90;;;;;;5013322;28;20042;-65
2023/10/12 12:28:43;;;;;;;2.92;0.80;;;15.30;99.90;;;;;;5015047;28;20092;-65
2023/10/12 12:31:15;;;;;;;5.40;1.40;;;15.30;99.90;;;;;;5017987;28;20046;-65
2023/10/12 12:33:45;;;;;;;2.55;0.90;;;15.30;99.90;;;;;;5017397;28;20117;-65
2023/10/12 12:36:21;;;;;;;3.47;1.10;;;15.20;99.90;;;;;;5017192;28;20093;-65
2023/10/12 12:38:57;;;;;;;5.32;1.40;;;15.20;99.90;;;;;;5017163;28;20111;-66
2023/10/12 12:41:25;;;;;;;;;;;15.10;99.90;;;;;;5018402;28;20085;-65
2023/10/12 12:43:53;;;;;;;3.50;1.00;;;15.10;99.90;;;;;;5049360;28;19944;-66
2023/10/12 12:46:19;;;;;;;6.03;1.30;;;15.10;99.90;;;;;;5017002;28;20428;-66
2023/10/12 12:48:49;;;;;;;4.32;1.15;;;15.10;99.90;;;;;;5016662;28;20053;-66
2023/10/12 12:51:18;;;;;;;3.25;0.90;;;15.10;99.90;;;;;;5016880;28;20053;-66
2023/10/12 12:53:46;;;;;;;6.13;1.17;;;15.10;99.90;;;;;;5016993;28;20129;-66
2023/10/12 12:56:15;;;;;;;4.05;1.08;;;15.20;99.90;;;;;;5016863;28;20471;-66
2023/10/12 12:58:48;;;;;;;4.85;1.30;;;15.20;99.90;;;;;;5016761;28;20072;-66
2023/10/12 13:01:18;;;;;;;4.35;1.10;;;15.20;99.90;;;;;;5016385;28;20053;-66
2023/10/12 13:03:45;;;;;;;3.03;0.90;;;15.20;99.90;;;;;;5016446;28;20494;-66
2023/10/12 13:06:12;;;;;;;2.15;0.85;;;15.10;99.90;;;;;;5017450;28;20426;-66
2023/10/12 13:08:39;;;;;;;4.75;1.20;;;15.10;99.90;;;;;;5016682;28;20372;-66
2023/10/12 13:11:04;;;;;;;4.63;1.10;;;15.00;99.90;;;;;;5016215;28;20486;-65
2023/10/12 13:13:34;;;;;;;4.32;1.15;;;15.00;99.90;;;;;;5015418;28;20046;-65
2023/10/12 13:16:04;;;;;;;5.45;1.20;;;15.00;99.90;;;;;;5014915;28;20414;-66
2023/10/12 13:18:34;;;;;;;4.90;1.35;;;14.90;99.90;;;;;;5016322;28;20053;-65
2023/10/12 13:21:06;;;;;;;6.55;1.00;;;14.90;99.90;;;;;;5016303;28;20409;-65
2023/10/12 13:23:33;;;;;;;4.05;1.00;;;14.90;99.90;;;;;;5016463;28;20104;-65
2023/10/12 13:26:09;;;;;;;3.40;1.15;;;14.80;99.90;;;;;;5015503;28;20046;-66
2023/10/12 13:28:35;;;;;;;;;;;14.90;99.90;;;;;;5013211;28;20046;-66
2023/10/12 13:31:01;;;;;;;9.33;1.83;;;14.80;99.90;;;;;;5016349;28;19928;-66
2023/10/12 13:33:28;;;;;;;4.75;1.10;;;14.80;99.90;;;;;;5016470;28;20045;-66
2023/10/12 13:35:55;;;;;;;4.07;1.00;;;14.80;99.90;;;;;;5015965;28;20045;-66
2023/10/12 13:38:21;;;;;;;3.30;1.00;;;14.70;99.90;;;;;;5016014;28;20050;-66
2023/10/12 13:40:48;;;;;;;7.18;1.40;;;14.70;99.90;;;;;;5015029;28;20137;-66
2023/10/12 13:43:26;;;;;;;4.20;1.10;;;14.60;99.90;;;;;;5016276;28;20087;-66
2023/10/12 13:45:54;;;;;;;3.55;0.98;;;14.60;99.90;;;;;;5016579;28;20103;-67
2023/10/12 13:48:25;;;;;;;3.95;1.35;;;14.50;99.90;;;;;;5015979;28;20046;-66
2023/10/12 13:51:08;;;;;;;2.83;1.40;;;14.50;99.90;;;;;;5014220;28;20454;-65
2023/10/12 13:53:37;;;;;;;5.32;1.65;;;14.40;99.90;;;;;;5015784;28;20053;-65
2023/10/12 13:56:08;;;;;;;4.07;1.40;;;14.30;99.90;;;;;;5015810;28;20053;-65
2023/10/12 13:58:35;;;;;;;3.53;1.27;;;14.20;99.90;;;;;;5015742;28;20395;-65
2023/10/12 14:01:05;;;;;;;4.55;1.40;;;14.20;99.90;;;;;;5015699;28;20058;-66
2023/10/12 14:03:38;;;;;;;3.03;1.38;;;14.10;99.90;;;;;;5015534;28;20053;-80
2023/10/12 14:06:06;;;;;;;5.93;1.75;;;14.00;99.90;;;;;;5014902;28;20487;-80
2023/10/12 14:08:35;;;;;;;4.45;1.50;;;13.90;99.90;;;;;;5016215;28;20054;-81
2023/10/12 14:11:06;;;;;;;4.72;1.35;;;13.90;99.90;;;;;;5016643;28;20052;-80
2023/10/12 14:13:33;;;;;;;3.67;1.33;;;13.80;99.90;;;;;;5014836;28;20042;-82
2023/10/12 14:15:59;;;;;;;5.88;1.70;;;13.70;99.90;;;;;;5014675;28;20144;-82
2023/10/12 14:18:28;;;;;;;5.45;1.40;;;13.70;99.90;;;;;;5014484;28;20081;-79
2023/10/12 14:20:55;;;;;;;5.22;1.77;;;13.70;99.90;;;;;;5014415;28;20069;-82
2023/10/12 14:23:26;;;;;;;3.03;1.45;;;13.60;99.90;;;;;;5014489;28;20042;-82
2023/10/12 14:25:54;;;;;;;6.15;1.60;;;13.60;99.90;;;;;;5014260;28;20041;-80
2023/10/12 14:28:20;;;;;;;5.75;1.63;;;13.60;99.90;;;;;;5015124;28;20045;-82
2023/10/12 14:30:52;;;;;;;5.50;1.38;;;13.60;99.90;;;;;;5014856;28;20482;-81
2023/10/12 14:33:19;;;;;;;2.70;1.40;;;13.50;99.90;;;;;;5014440;28;20130;-79
2023/10/12 14:35:46;;;;;;;5.60;1.23;;;13.50;99.90;;;;;;5014645;28;20054;-80
2023/10/12 14:38:16;;;;;;;6.22;1.73;;;13.50;99.90;;;;;;5015380;28;20052;-78
2023/10/12 14:40:43;;;;;;;3.83;1.30;;;13.50;99.90;;;;;;5014947;28;20045;-79
2023/10/12 14:43:11;;;;;;;4.55;1.45;;;13.50;99.90;;;;;;5013740;28;20045;-78
2023/10/12 14:45:43;;;;;;;5.28;1.58;;;13.50;99.90;;;;;;5014700;28;20037;-78
2023/10/12 14:48:10;;;;;;;5.78;1.58;;;13.50;99.90;;;;;;5014779;28;20050;-77
2023/10/12 14:50:45;;;;;;;3.67;1.50;;;13.50;99.90;;;;;;5014870;28;20049;-77
2023/10/12 14:53:15;;;;;;;5.13;1.43;;;13.50;99.90;;;;;;5014997;28;20076;-78
2023/10/12 14:55:51;;;;;;;4.10;1.40;;;13.50;99.90;;;;;;5014956;28;20470;-78
2023/10/12 14:58:21;;;;;;;5.90;1.60;;;13.50;99.90;;;;;;5015402;28;20160;-78
2023/10/12 15:00:47;;;;;;;8.68;2.53;;;13.40;99.90;;;;;;5014532;28;20050;-79
2023/10/12 15:03:21;;;;;;;5.07;2.17;;;13.60;99.90;;;;;;5013546;28;20042;-78
2023/10/12 15:05:59;;;;;;;5.15;1.58;;;13.60;99.90;;;;;;4997038;28;20114;-78
2023/10/12 15:08:25;;;;;;;6.00;1.90;;;13.60;99.90;;;;;;5013270;28;20490;-77